Time;durP1;ratioP1;P1;durP2;ratioP2;P2;SDS_P1;SDS_P2;PMS_P1;PMS_P2;Temp;Humidity;BMP_temperature;BMP_pressure;BME280_temperature;BME280_humidity;BME280_pressure;Samples;Min_cycle;Max_cycle;Signal;HPM_P1;HPM_P2
2022/08/22 00:02:33;;;;;;;6.28;2.35;;;;;;;22.48;64.56;98762.69;4481396;32;32897;-63
2022/08/22 00:05:09;;;;;;;4.80;3.20;;;;;;;21.92;66.20;98768.66;4472866;32;33157;-63
2022/08/22 00:07:50;;;;;;;4.43;2.83;;;;;;;22.44;64.69;98760.59;4476558;32;32266;-63
2022/08/22 00:10:24;;;;;;;5.43;3.10;;;;;;;21.95;66.25;98767.41;4469358;32;33940;-63
2022/08/22 00:13:32;;;;;;;4.78;3.22;;;;;;;22.49;64.33;98767.09;4473268;32;34125;-62
2022/08/22 00:16:19;;;;;;;4.12;2.33;;;;;;;22.41;64.29;98764.63;4406519;32;34412;-63
2022/08/22 00:19:02;;;;;;;4.22;2.87;;;;;;;22.52;64.17;98757.66;4472864;32;32197;-63
2022/08/22 00:21:52;;;;;;;4.30;2.70;;;;;;;22.09;65.53;98764.47;4457411;32;33735;-63
2022/08/22 00:24:25;;;;;;;4.07;2.65;;;;;;;22.08;65.80;98768.22;4475269;32;33768;-63
2022/08/22 00:27:00;;;;;;;5.62;2.78;;;;;;;22.00;65.73;98762.16;4480121;32;33431;-63
2022/08/22 00:29:34;;;;;;;;;;;;;;;22.00;65.59;98764.91;4479975;32;33793;-64
2022/08/22 00:32:41;;;;;;;4.62;2.70;;;;;;;22.22;64.93;98770.97;4480186;32;35165;-63
2022/08/22 00:35:30;;;;;;;4.25;2.58;;;;;;;22.05;65.68;98765.09;4444732;32;33802;-63
2022/08/22 00:38:05;;;;;;;11.48;2.87;;;;;;;22.23;65.61;98769.91;4476453;32;34428;-62
2022/08/22 00:41:00;;;;;;;4.03;2.20;;;;;;;22.13;65.64;98764.03;4475222;32;33829;-62
2022/08/22 00:43:50;;;;;;;3.60;2.30;;;;;;;22.28;64.55;98770.94;4482222;32;34945;-62
2022/08/22 00:46:36;;;;;;;6.22;2.05;;;;;;;22.09;65.60;98769.91;4480608;32;33629;-63
2022/08/22 00:49:30;;;;;;;3.72;2.40;;;;;;;22.33;65.11;98776.56;4479702;32;32092;-64
2022/08/22 00:52:15;;;;;;;3.95;2.90;;;;;;;22.57;64.50;98771.50;4445332;32;33568;-64
2022/08/22 00:55:07;;;;;;;5.07;3.15;;;;;;;22.67;63.68;98774.59;4478586;31;34159;-64
2022/08/22 00:58:11;;;;;;;4.55;2.58;;;;;;;22.84;62.78;98771.38;4482010;32;34960;-65
2022/08/22 01:00:51;;;;;;;5.65;3.05;;;;;;;22.97;62.27;98772.16;4479384;32;33408;-64
2022/08/22 01:03:43;;;;;;;4.50;2.67;;;;;;;22.92;62.41;98776.56;4470217;32;34856;-64
2022/08/22 01:06:26;;;;;;;4.35;2.90;;;;;;;23.00;62.49;98773.59;4475383;32;32986;-62
2022/08/22 01:09:14;;;;;;;4.78;2.90;;;;;;;22.98;62.19;98767.53;4483095;32;33815;-62
2022/08/22 01:11:45;;;;;;;5.05;2.95;;;;;;;23.00;62.01;98773.59;4485821;32;33630;-62
2022/08/22 01:14:26;;;;;;;4.20;2.60;;;;;;;23.05;61.68;98768.34;4484063;32;32693;-62
2022/08/22 01:17:23;;;;;;;4.95;3.08;;;;;;;23.03;61.74;98767.72;4483830;32;34245;-63
2022/08/22 01:20:06;;;;;;;3.95;2.53;;;;;;;22.94;61.88;98767.13;4482774;32;32407;-63
2022/08/22 01:22:46;;;;;;;4.15;2.70;;;;;;;22.92;61.96;98768.38;4483938;32;34540;-64
2022/08/22 01:25:56;;;;;;;3.60;2.12;;;;;;;22.95;62.11;98765.22;4475984;32;33925;-64
2022/08/22 01:28:43;;;;;;;3.72;2.28;;;;;;;23.01;61.40;98761.63;4477853;32;32859;-64
2022/08/22 01:31:40;;;;;;;4.68;2.90;;;;;;;22.77;63.12;98765.94;4475332;32;33914;-64
2022/08/22 01:34:36;;;;;;;3.78;2.37;;;;;;;22.85;62.39;98768.41;4470519;32;33409;-63
2022/08/22 01:37:16;;;;;;;4.57;2.60;;;;;;;22.96;61.88;98765.03;4478147;32;33657;-63
2022/08/22 01:39:55;;;;;;;4.68;2.60;;;;;;;22.70;62.73;98765.13;4483267;32;33813;-64
2022/08/22 01:42:23;;;;;;;3.70;2.25;;;;;;;23.04;61.92;98760.38;4471424;32;33638;-63
2022/08/22 01:45:12;;;;;;;3.40;2.20;;;;;;;23.08;61.63;98767.03;4483246;32;33153;-64
2022/08/22 01:47:54;;;;;;;4.32;2.30;;;;;;;22.99;61.82;98772.78;4483775;32;34502;-63
2022/08/22 01:50:36;;;;;;;3.25;2.30;;;;;;;22.93;61.76;98768.19;4482609;32;34111;-63
2022/08/22 01:53:24;;;;;;;3.25;2.03;;;;;;;22.88;62.11;98769.88;4476913;32;33600;-63
2022/08/22 01:56:04;;;;;;;4.35;2.42;;;;;;;22.95;61.92;98770.69;4464257;32;32984;-62
2022/08/22 01:58:35;;;;;;;4.15;2.15;;;;;;;23.06;61.75;98766.44;4476207;32;33775;-62
2022/08/22 02:01:32;;;;;;;3.97;2.17;;;;;;;23.23;61.32;98770.31;4482824;32;33927;-62
2022/08/22 02:04:26;;;;;;;4.35;1.95;;;;;;;23.16;61.27;98764.06;4433938;31;33625;-62
2022/08/22 02:07:03;;;;;;;4.65;2.65;;;;;;;23.15;61.67;98759.69;4480053;32;33399;-62
2022/08/22 02:09:59;;;;;;;3.95;2.60;;;;;;;22.71;63.07;98767.63;4476128;32;34528;-61
2022/08/22 02:12:45;;;;;;;;;;;;;;;22.61;63.38;98760.97;4466311;32;35136;-61
2022/08/22 02:15:37;;;;;;;4.60;2.65;;;;;;;22.89;62.50;98753.28;4477233;32;32121;-61
2022/08/22 02:18:05;;;;;;;4.05;2.35;;;;;;;22.98;62.21;98751.97;4483058;32;33240;-62
2022/08/22 02:21:02;;;;;;;4.30;2.67;;;;;;;23.02;62.48;98757.88;4480522;32;33381;-62
2022/08/22 02:23:54;;;;;;;4.30;2.65;;;;;;;22.92;62.55;98755.59;4479055;32;35430;-62
2022/08/22 02:26:45;;;;;;;4.00;2.78;;;;;;;23.11;62.25;98750.22;4479334;32;32131;-63
2022/08/22 02:29:18;;;;;;;4.55;2.87;;;;;;;22.68;63.41;98757.16;4480699;32;34334;-63
2022/08/22 02:31:51;;;;;;;4.15;2.62;;;;;;;23.29;61.51;98747.59;4477350;32;33531;-63
2022/08/22 02:34:27;;;;;;;5.32;2.87;;;;;;;23.44;60.73;98750.03;4481231;32;35011;-62
2022/08/22 02:37:08;;;;;;;4.15;2.47;;;;;;;23.45;60.95;98746.22;4480357;32;32669;-62
2022/08/22 02:40:01;;;;;;;4.10;2.47;;;;;;;23.35;61.27;98746.72;4475448;32;33251;-62
2022/08/22 02:42:39;;;;;;;4.20;2.65;;;;;;;23.46;60.52;98745.16;4478874;32;33980;-63
2022/08/22 02:45:19;;;;;;;4.22;2.50;;;;;;;23.30;60.96;98748.44;4476069;32;33725;-63
2022/08/22 02:48:00;;;;;;;6.93;2.37;;;;;;;23.34;60.77;98738.72;4482219;32;33749;-63
2022/08/22 02:50:36;;;;;;;6.05;3.05;;;;;;;23.34;60.63;98733.28;4475819;32;32993;-63
2022/08/22 02:53:13;;;;;;;4.12;2.67;;;;;;;23.02;61.84;98745.06;4481571;32;34794;-63
2022/08/22 02:55:53;;;;;;;3.92;2.33;;;;;;;23.10;62.08;98745.84;4480389;32;33667;-63
2022/08/22 02:58:42;;;;;;;5.57;2.95;;;;;;;23.22;61.75;98742.19;4467474;32;34043;-63
2022/08/22 03:01:34;;;;;;;4.60;2.85;;;;;;;23.04;62.20;98736.63;4467865;32;32289;-64
2022/08/22 03:04:23;;;;;;;6.12;3.30;;;;;;;22.94;62.70;98741.75;4477145;32;34123;-63
2022/08/22 03:06:56;;;;;;;5.47;3.33;;;;;;;22.77;63.41;98735.94;4475811;32;33733;-64
2022/08/22 03:09:29;;;;;;;4.75;2.17;;;;;;;23.01;62.52;98739.81;4481360;32;34557;-64
2022/08/22 03:12:09;;;;;;;4.55;3.08;;;;;;;22.94;62.85;98736.28;4476073;32;33355;-63
2022/08/22 03:14:44;;;;;;;5.20;3.60;;;;;;;22.97;62.72;98739.41;4475193;32;34708;-63
2022/08/22 03:17:18;;;;;;;5.95;3.67;;;;;;;22.97;62.77;98747.59;4472157;32;33847;-63
2022/08/22 03:20:04;;;;;;;5.50;3.47;;;;;;;23.13;62.40;98745.41;4465862;32;33577;-63
2022/08/22 03:22:53;;;;;;;5.28;2.95;;;;;;;23.25;61.87;98746.38;4474481;32;33158;-63
2022/08/22 03:25:29;;;;;;;5.18;3.72;;;;;;;23.16;62.16;98750.44;4465567;32;34976;-64
2022/08/22 03:28:10;;;;;;;6.65;3.92;;;;;;;23.02;62.44;98745.06;4476215;32;33623;-64
2022/08/22 03:31:00;;;;;;;5.22;4.03;;;;;;;23.10;62.54;98754.03;4464845;32;33660;-63
2022/08/22 03:33:29;;;;;;;6.97;3.45;;;;;;;23.25;62.02;98755.41;4465001;32;33207;-64
2022/08/22 03:36:12;;;;;;;5.07;3.58;;;;;;;23.27;62.09;98754.34;4467104;32;34965;-64
2022/08/22 03:38:51;;;;;;;5.80;3.92;;;;;;;23.31;61.57;98764.59;4480012;32;33804;-62
2022/08/22 03:41:28;;;;;;;8.10;4.18;;;;;;;23.26;61.48;98764.41;4477010;32;34832;-64
2022/08/22 03:44:37;;;;;;;7.82;4.07;;;;;;;23.17;62.10;98763.00;4475210;32;33407;-64
2022/08/22 03:47:27;;;;;;;6.15;3.78;;;;;;;22.95;62.98;98759.78;4456460;31;32295;-64
2022/08/22 03:50:21;;;;;;;5.55;3.58;;;;;;;22.70;63.02;98759.69;4480331;32;33919;-64
2022/08/22 03:53:07;;;;;;;6.82;4.18;;;;;;;23.07;62.38;98757.19;4476834;31;33852;-64
2022/08/22 03:56:07;;;;;;;6.47;4.10;;;;;;;23.15;62.03;98763.25;4478229;32;32545;-63
2022/08/22 03:58:38;;;;;;;5.53;3.75;;;;;;;23.23;61.91;98759.41;4477440;32;34885;-63
2022/08/22 04:01:30;;;;;;;5.45;3.80;;;;;;;23.17;61.99;98760.28;4479388;32;34689;-64
2022/08/22 04:04:14;;;;;;;6.20;4.25;;;;;;;23.28;61.68;98772.41;4474562;31;32556;-63
2022/08/22 04:06:45;;;;;;;6.22;4.30;;;;;;;23.17;61.97;98765.72;4454400;32;33240;-64
2022/08/22 04:09:59;;;;;;;8.68;4.62;;;;;;;23.29;61.77;98766.72;4475798;31;33962;-64
2022/08/22 04:12:52;;;;;;;5.93;4.10;;;;;;;23.37;61.93;98773.78;4468160;32;33899;-64
2022/08/22 04:15:26;;;;;;;5.93;3.83;;;;;;;23.35;62.14;98778.66;4468232;32;34533;-64
2022/08/22 04:18:23;;;;;;;5.45;3.70;;;;;;;23.40;62.04;98776.06;4477769;32;34728;-64
2022/08/22 04:21:04;;;;;;;6.93;3.92;;;;;;;23.49;61.74;98769.28;4478663;32;33484;-64
2022/08/22 04:23:48;;;;;;;8.73;4.55;;;;;;;23.47;61.87;98769.53;4470452;32;32672;-64
2022/08/22 04:26:21;;;;;;;6.85;4.30;;;;;;;23.47;62.10;98772.25;4469438;32;33778;-64
2022/08/22 04:28:52;;;;;;;8.65;4.72;;;;;;;23.53;61.94;98776.00;4482030;32;31913;-64
2022/08/22 04:31:26;;;;;;;5.85;4.25;;;;;;;23.55;62.02;98783.97;4479499;32;33848;-65
2022/08/22 04:34:05;;;;;;;7.65;4.30;;;;;;;23.61;61.79;98783.06;4477323;32;35173;-64
2022/08/22 04:36:42;;;;;;;4.85;3.42;;;;;;;23.62;61.88;98773.81;4468687;32;33017;-62
2022/08/22 04:39:28;;;;;;;9.15;4.47;;;;;;;23.57;62.35;98779.94;4466127;32;33428;-62
2022/08/22 04:42:20;;;;;;;6.82;4.97;;;;;;;23.45;62.83;98779.81;4470372;31;33949;-62
2022/08/22 04:45:15;;;;;;;7.28;4.85;;;;;;;23.68;62.08;98781.13;4465756;32;33681;-63
2022/08/22 04:48:14;;;;;;;6.22;4.53;;;;;;;23.73;61.83;98783.22;4465526;32;34241;-64
2022/08/22 04:50:56;;;;;;;5.80;4.12;;;;;;;23.76;61.59;98790.97;4478874;32;33433;-64
2022/08/22 04:53:55;;;;;;;5.37;3.40;;;;;;;23.65;62.05;98800.69;4482723;31;34971;-64
2022/08/22 04:56:42;;;;;;;7.10;3.87;;;;;;;23.70;62.17;98793.53;4478498;32;35090;-62
2022/08/22 04:59:15;;;;;;;7.57;4.80;;;;;;;23.83;61.56;98791.75;4475359;32;33693;-62
2022/08/22 05:02:05;;;;;;;7.40;3.92;;;;;;;23.62;62.40;98796.50;4476445;32;33474;-62
2022/08/22 05:04:49;;;;;;;10.27;4.70;;;;;;;23.58;62.89;98798.00;4478276;31;34899;-62
2022/08/22 05:07:21;;;;;;;8.48;5.50;;;;;;;23.66;62.83;98792.28;4474041;31;33784;-62
2022/08/22 05:09:53;;;;;;;7.03;4.62;;;;;;;23.76;62.53;98791.81;4470372;32;33779;-64
2022/08/22 05:12:33;;;;;;;9.55;5.07;;;;;;;23.83;62.25;98791.75;4479085;32;33245;-65
2022/08/22 05:15:17;;;;;;;6.50;4.95;;;;;;;23.85;62.33;98801.41;4474923;31;33810;-63
2022/08/22 05:17:52;;;;;;;7.12;5.37;;;;;;;23.82;62.38;98798.25;4472570;32;33866;-64
2022/08/22 05:20:23;;;;;;;6.72;4.90;;;;;;;23.93;62.12;98803.84;4478438;32;33808;-64
2022/08/22 05:22:56;;;;;;;7.03;5.50;;;;;;;23.91;62.19;98797.75;4479208;32;31938;-65
2022/08/22 05:25:29;;;;;;;7.60;5.85;;;;;;;23.83;62.52;98799.94;4476355;31;35497;-64
2022/08/22 05:28:11;;;;;;;6.97;5.20;;;;;;;23.82;63.06;98801.84;4469713;32;33785;-64
2022/08/22 05:30:39;;;;;;;7.22;5.75;;;;;;;24.04;62.41;98807.72;4468438;32;33949;-64
2022/08/22 05:33:19;;;;;;;9.65;6.22;;;;;;;24.02;62.73;98807.13;4483311;32;33312;-62
2022/08/22 05:35:53;;;;;;;8.20;5.95;;;;;;;23.77;63.65;98809.03;4467440;32;33474;-63
2022/08/22 05:38:30;;;;;;;8.43;5.90;;;;;;;23.94;63.01;98813.69;4480502;32;34726;-63
2022/08/22 05:41:09;;;;;;;7.85;6.22;;;;;;;24.02;62.79;98817.22;4474315;31;33784;-64
2022/08/22 05:43:40;;;;;;;11.60;7.05;;;;;;;24.02;63.06;98818.06;4479433;32;34679;-64
2022/08/22 05:46:35;;;;;;;9.65;7.12;;;;;;;23.85;63.44;98823.25;4478288;32;33897;-65
2022/08/22 05:49:04;;;;;;;10.23;7.28;;;;;;;24.15;62.58;98817.09;4470114;32;33785;-64
2022/08/22 05:51:47;;;;;;;11.55;7.32;;;;;;;24.08;63.43;98819.91;4479538;32;33633;-63
2022/08/22 05:54:19;;;;;;;10.15;7.53;;;;;;;23.81;63.59;98821.19;4477909;32;33509;-63
2022/08/22 05:56:52;;;;;;;11.88;7.50;;;;;;;23.66;64.04;98827.78;4477937;32;34675;-62
2022/08/22 05:59:29;;;;;;;8.27;6.90;;;;;;;23.86;63.36;98829.56;4480563;31;34833;-63
2022/08/22 06:02:06;;;;;;;12.80;8.38;;;;;;;24.08;62.91;98838.22;4469173;32;33730;-63
2022/08/22 06:04:45;;;;;;;10.65;7.32;;;;;;;24.17;62.94;98840.44;4476345;32;34401;-63
2022/08/22 06:07:20;;;;;;;10.40;7.53;;;;;;;23.99;63.06;98847.75;4477536;32;32680;-63
2022/08/22 06:10:18;;;;;;;9.20;7.43;;;;;;;24.18;62.83;98838.53;4474394;32;33921;-63
2022/08/22 06:13:03;;;;;;;12.00;8.18;;;;;;;24.09;63.21;98835.22;4478214;32;33680;-63
2022/08/22 06:15:46;;;;;;;9.85;7.32;;;;;;;24.17;63.15;98842.31;4471956;32;32810;-63
2022/08/22 06:18:22;;;;;;;9.65;7.15;;;;;;;24.35;62.82;98839.59;4467753;32;34864;-62
2022/08/22 06:21:00;;;;;;;11.25;8.77;;;;;;;24.50;62.21;98841.19;4477862;31;34659;-63
2022/08/22 06:24:04;;;;;;;12.35;7.70;;;;;;;24.41;62.84;98835.16;4479173;32;33638;-62
2022/08/22 06:26:36;;;;;;;14.70;7.68;;;;;;;24.36;62.85;98841.28;4452329;31;33069;-62
2022/08/22 06:29:06;;;;;;;9.57;7.10;;;;;;;24.37;63.03;98845.69;4477399;32;34791;-64
2022/08/22 06:31:44;;;;;;;9.77;7.65;;;;;;;24.39;62.91;98843.56;4477478;31;34038;-63
2022/08/22 06:34:14;;;;;;;14.07;7.20;;;;;;;24.40;63.00;98847.97;4480430;32;33821;-63
2022/08/22 06:36:46;;;;;;;11.38;7.25;;;;;;;24.48;62.75;98848.78;4480981;31;32546;-63
2022/08/22 06:39:31;;;;;;;10.82;7.22;;;;;;;24.56;62.98;98845.75;4468731;32;32741;-63
2022/08/22 06:42:08;;;;;;;8.82;6.82;;;;;;;24.49;62.45;98850.44;4479622;31;33943;-62
2022/08/22 06:45:10;;;;;;;9.20;6.57;;;;;;;24.43;62.74;98852.19;4474495;32;33765;-63
2022/08/22 06:47:41;;;;;;;10.70;7.30;;;;;;;24.48;62.92;98848.78;4471859;32;32082;-62
2022/08/22 06:50:35;;;;;;;12.88;7.35;;;;;;;24.78;62.12;98860.66;4467624;32;33921;-63
2022/08/22 06:53:08;;;;;;;11.32;7.32;;;;;;;24.87;62.11;98866.63;4470645;32;34932;-63
2022/08/22 06:55:38;;;;;;;11.55;7.37;;;;;;;24.80;62.66;98854.94;4477846;32;33525;-63
2022/08/22 06:58:16;;;;;;;9.68;7.37;;;;;;;24.81;62.74;98859.34;4470495;32;33305;-63
2022/08/22 07:00:46;;;;;;;11.77;8.32;;;;;;;24.95;62.51;98858.13;4465626;32;34875;-63
2022/08/22 07:03:40;;;;;;;11.45;7.60;;;;;;;25.06;62.07;98862.81;4476282;32;32728;-63
2022/08/22 07:06:13;;;;;;;12.07;6.60;;;;;;;25.13;61.94;98851.81;4477371;32;34710;-62
2022/08/22 07:08:41;;;;;;;13.80;7.80;;;;;;;25.23;61.87;98846.66;4471683;32;33342;-65
2022/08/22 07:11:20;;;;;;;9.38;7.07;;;;;;;25.33;61.47;98846.94;4477398;32;33815;-62
2022/08/22 07:14:15;;;;;;;11.63;7.65;;;;;;;25.46;61.21;98851.38;4467994;32;32558;-62
2022/08/22 07:16:59;;;;;;;9.52;7.10;;;;;;;25.53;60.83;98846.62;4475421;32;33783;-63
2022/08/22 07:19:29;;;;;;;13.00;8.45;;;;;;;25.54;60.76;98858.41;4482679;32;34421;-62
2022/08/22 07:21:58;;;;;;;11.10;7.90;;;;;;;25.46;60.98;98858.75;4474496;32;34554;-63
2022/08/22 07:24:30;;;;;;;10.40;8.02;;;;;;;25.55;60.58;98860.94;4467733;32;33934;-63
2022/08/22 07:27:22;;;;;;;11.20;7.12;;;;;;;25.60;60.47;98854.75;4470039;32;34095;-63
2022/08/22 07:30:12;;;;;;;11.20;7.78;;;;;;;25.51;60.77;98864.38;4483361;32;33451;-63
2022/08/22 07:32:49;;;;;;;11.15;8.40;;;;;;;25.66;59.91;98859.28;4467842;32;135315;-63
2022/08/22 07:35:25;;;;;;;11.48;8.32;;;;;;;25.11;61.62;98867.63;4480509;32;33834;-62
2022/08/22 07:38:06;;;;;;;12.25;8.60;;;;;;;24.95;62.79;98860.03;4480991;32;33557;-63
2022/08/22 07:40:58;;;;;;;9.32;6.93;;;;;;;25.11;63.02;98862.16;4481197;32;34511;-62
2022/08/22 07:43:34;;;;;;;12.55;8.32;;;;;;;25.43;61.64;98856.50;4479549;32;33772;-63
2022/08/22 07:46:23;;;;;;;12.77;8.02;;;;;;;25.36;61.22;98861.19;4479325;32;34072;-63
2022/08/22 07:48:59;;;;;;;10.57;8.40;;;;;;;25.05;61.03;98868.53;4470169;32;32581;-62
2022/08/22 07:51:48;;;;;;;12.68;8.32;;;;;;;25.21;61.18;98869.84;4468254;32;33513;-63
2022/08/22 07:54:22;;;;;;;12.13;8.60;;;;;;;24.80;63.00;98880.41;4477446;32;33366;-63
2022/08/22 07:57:02;;;;;;;12.25;8.35;;;;;;;24.93;61.82;98876.69;4477155;32;35245;-63
2022/08/22 07:59:33;;;;;;;14.43;8.80;;;;;;;25.06;60.97;98875.69;4480305;32;33672;-63
2022/08/22 08:02:04;;;;;;;12.55;9.13;;;;;;;25.04;61.31;98875.06;4469633;32;32512;-63
2022/08/22 08:04:34;;;;;;;14.18;9.98;;;;;;;25.00;61.95;98873.84;4470316;32;33897;-63
2022/08/22 08:07:09;;;;;;;14.57;8.83;;;;;;;24.77;61.86;98875.38;4466588;32;33699;-62
2022/08/22 08:09:43;;;;;;;11.05;8.43;;;;;;;24.90;61.71;98870.81;4475950;32;32964;-63
2022/08/22 08:12:11;;;;;;;12.52;9.35;;;;;;;25.00;61.18;98873.84;4478357;32;34343;-63
2022/08/22 08:14:41;;;;;;;13.38;9.45;;;;;;;24.88;60.03;98876.53;4476080;32;34022;-63
2022/08/22 08:17:16;;;;;;;17.30;9.45;;;;;;;24.93;60.55;98873.09;4477929;32;34344;-63
2022/08/22 08:19:46;;;;;;;13.40;9.20;;;;;;;24.51;62.80;98883.88;4475171;32;32817;-63
2022/08/22 08:22:20;;;;;;;11.52;8.48;;;;;;;24.90;61.39;98879.03;4467224;32;34705;-63
2022/08/22 08:24:48;;;;;;;13.43;8.68;;;;;;;25.00;61.75;98882.06;4469570;32;35388;-63
2022/08/22 08:30:11;;;;;;;14.27;9.18;;;;;;;25.31;60.15;98873.69;4477328;32;34038;-63
2022/08/22 08:32:46;;;;;;;12.55;9.07;;;;;;;25.25;59.50;98873.78;4477130;32;32051;-63
2022/08/22 08:35:30;;;;;;;17.37;11.15;;;;;;;25.70;58.72;98865.97;4480144;32;35010;-63
2022/08/22 08:38:15;;;;;;;14.90;8.80;;;;;;;25.61;59.15;98881.06;4478478;32;35219;-63
2022/08/22 08:41:09;;;;;;;14.20;9.02;;;;;;;25.55;59.34;98876.53;4483590;32;33795;-63
2022/08/22 08:43:39;;;;;;;12.73;8.60;;;;;;;25.18;59.68;98876.62;4474955;32;33095;-63
2022/08/22 08:46:46;;;;;;;13.32;8.57;;;;;;;25.36;59.27;98874.91;4476415;32;33070;-63
2022/08/22 08:49:31;;;;;;;14.65;7.82;;;;;;;25.63;58.81;98881.69;4441379;32;34934;-63
2022/08/22 08:52:24;;;;;;;11.27;8.10;;;;;;;25.54;59.15;98874.84;4478421;32;33998;-63
2022/08/22 08:55:13;;;;;;;11.60;7.62;;;;;;;25.26;60.76;98875.44;4474001;32;34564;-63
2022/08/22 08:58:22;;;;;;;10.85;7.93;;;;;;;25.34;60.16;98872.41;4480817;32;34739;-63
2022/08/22 09:00:59;;;;;;;15.77;8.18;;;;;;;25.55;59.67;98882.00;4481427;32;34137;-63
2022/08/22 09:04:06;;;;;;;11.23;8.10;;;;;;;25.48;60.01;98884.84;4481907;32;32718;-63
2022/08/22 09:07:09;;;;;;;13.05;7.28;;;;;;;24.94;60.70;98883.81;4472884;32;32271;-63
2022/08/22 09:09:50;;;;;;;9.88;7.22;;;;;;;25.15;61.13;98888.03;4477163;32;32415;-63
2022/08/22 09:12:35;;;;;;;12.82;7.57;;;;;;;25.58;60.20;98884.28;4482163;32;34139;-63
2022/08/22 09:15:43;;;;;;;10.23;7.12;;;;;;;25.62;59.47;98879.16;4477367;32;33920;-63
2022/08/22 09:18:32;;;;;;;11.18;8.35;;;;;;;25.53;60.58;98884.97;4483257;32;32102;-63
2022/08/22 09:21:42;;;;;;;11.35;8.00;;;;;;;25.28;62.12;98889.75;4478741;32;32424;-63
2022/08/22 09:24:36;;;;;;;9.75;7.68;;;;;;;25.88;60.50;98880.72;4429963;32;35078;-63
2022/08/22 09:27:22;;;;;;;9.90;6.50;;;;;;;25.61;61.03;98889.28;4474828;31;34194;-63
2022/08/22 09:30:03;;;;;;;12.40;7.53;;;;;;;25.93;60.10;98883.56;4485220;32;33781;-63
2022/08/22 09:33:08;;;;;;;13.98;7.78;;;;;;;25.67;60.74;98893.00;4472157;32;31971;-63
2022/08/22 09:36:14;;;;;;;11.03;7.27;;;;;;;25.77;60.12;98885.06;4468425;32;35226;-62
2022/08/22 09:38:54;;;;;;;11.70;7.03;;;;;;;25.66;60.66;98883.97;4450900;32;34956;-63
2022/08/22 09:41:36;;;;;;;10.90;6.40;;;;;;;25.82;58.93;98882.50;4428612;32;35801;-62
2022/08/22 09:44:15;;;;;;;11.85;6.53;;;;;;;25.89;58.94;98885.12;4459104;32;34504;-63
2022/08/22 09:47:19;;;;;;;10.55;6.80;;;;;;;25.58;61.06;98888.91;4460794;32;34676;-63
2022/08/22 09:50:13;;;;;;;12.95;6.87;;;;;;;25.92;59.36;98879.16;4456679;32;32491;-63
2022/08/22 09:53:08;;;;;;;15.68;8.38;;;;;;;25.94;59.08;98879.75;4473524;32;34003;-63
2022/08/22 09:55:53;;;;;;;10.75;6.93;;;;;;;25.88;58.22;98886.22;4482671;32;33643;-63
2022/08/22 09:58:45;;;;;;;;;;;;;;;25.79;58.76;98886.50;4471184;32;34199;-63
2022/08/22 10:01:34;;;;;;;11.18;7.15;;;;;;;26.08;58.13;98892.19;4472616;32;34188;-63
2022/08/22 10:04:41;;;;;;;13.10;7.62;;;;;;;26.08;58.70;98885.88;4476454;32;32197;-64
2022/08/22 10:07:32;;;;;;;11.57;8.35;;;;;;;25.61;59.25;98889.28;4465137;32;33536;-65
2022/08/22 10:10:25;;;;;;;14.35;9.27;;;;;;;25.88;59.75;98880.72;4483874;31;33445;-64
2022/08/22 10:12:59;;;;;;;12.13;8.98;;;;;;;25.13;61.91;98884.66;4476189;32;34097;-64
2022/08/22 10:15:49;;;;;;;12.57;8.70;;;;;;;25.61;61.62;98888.47;4469547;32;32274;-64
2022/08/22 10:18:40;;;;;;;13.10;9.55;;;;;;;25.66;61.68;98892.19;4475131;32;32587;-65
2022/08/22 10:22:01;;;;;;;12.48;9.02;;;;;;;25.69;62.13;98890.88;4478900;32;32945;-64
2022/08/22 10:24:50;;;;;;;11.10;8.27;;;;;;;25.77;62.12;98890.53;4474543;32;32816;-64
2022/08/22 10:27:31;;;;;;;11.57;8.38;;;;;;;26.06;61.96;98894.31;4471330;32;33362;-64
2022/08/22 10:30:05;;;;;;;12.40;8.43;;;;;;;26.21;61.53;98882.91;4469638;32;32593;-65
2022/08/22 10:32:45;;;;;;;12.70;9.27;;;;;;;26.05;62.15;98880.87;4479444;32;32967;-64
2022/08/22 10:35:24;;;;;;;12.23;7.47;;;;;;;26.13;62.15;98889.59;4477427;31;32801;-65
2022/08/22 10:38:20;;;;;;;13.38;9.40;;;;;;;26.20;61.53;98894.97;4479525;32;33241;-64
2022/08/22 10:41:07;;;;;;;11.85;8.82;;;;;;;26.36;60.53;98894.25;4476169;32;33149;-65
2022/08/22 10:43:49;;;;;;;11.45;8.07;;;;;;;26.27;60.72;98890.19;4479292;32;32860;-65
2022/08/22 10:46:48;;;;;;;11.38;7.55;;;;;;;26.08;59.97;98892.19;4472929;31;32701;-64
2022/08/22 10:49:25;;;;;;;10.82;6.93;;;;;;;26.41;58.51;98896.28;4470750;32;33304;-64
2022/08/22 10:52:00;;;;;;;11.15;6.97;;;;;;;26.38;58.26;98888.50;4472147;32;33613;-65
2022/08/22 10:55:00;;;;;;;10.68;7.25;;;;;;;26.34;57.67;98893.66;4467220;32;35244;-65
2022/08/22 10:58:03;;;;;;;10.23;6.75;;;;;;;26.34;57.46;98890.06;4474339;32;33795;-65
2022/08/22 11:00:47;;;;;;;9.00;6.12;;;;;;;26.02;58.88;98890.38;4469259;32;32255;-64
2022/08/22 11:03:19;;;;;;;10.10;5.90;;;;;;;26.09;56.26;98888.37;4470165;32;34001;-65
2022/08/22 11:06:05;;;;;;;9.85;6.95;;;;;;;25.93;57.37;98883.56;4470938;32;35123;-65
2022/08/22 11:08:58;;;;;;;9.80;6.60;;;;;;;26.47;56.51;98881.59;4477098;32;33769;-65
2022/08/22 11:11:46;;;;;;;8.95;5.60;;;;;;;26.23;57.82;98878.03;4475800;31;33491;-65
2022/08/22 11:14:36;;;;;;;13.45;7.37;;;;;;;26.65;55.45;98883.44;4479108;32;35008;-65
2022/08/22 11:17:22;;;;;;;9.95;6.05;;;;;;;26.82;55.17;98884.34;4479720;32;32072;-64
2022/08/22 11:20:05;;;;;;;11.07;6.82;;;;;;;26.65;54.97;98881.50;4478969;32;32594;-65
2022/08/22 11:22:53;;;;;;;11.98;7.15;;;;;;;26.12;57.46;98881.59;4471935;32;32183;-65
2022/08/22 11:25:40;;;;;;;13.45;7.97;;;;;;;26.43;57.32;98883.16;4481335;32;33647;-65
2022/08/22 11:28:28;;;;;;;15.57;12.20;;;;;;;26.63;56.51;98883.66;4478935;31;33992;-65
2022/08/22 11:31:06;;;;;;;15.18;9.52;;;;;;;26.77;58.37;98877.91;4477466;32;32641;-65
2022/08/22 11:33:51;;;;;;;16.83;11.43;;;;;;;26.41;58.86;98875.16;4478612;31;33124;-65
2022/08/22 11:36:19;;;;;;;;;;;;;;;26.63;57.19;98880.91;4481700;32;32508;-65
2022/08/22 11:39:02;;;;;;;;;;;;;;;26.88;56.72;98875.16;4479765;32;35519;-65
2022/08/22 11:41:48;;;;;;;;;;;;;;;27.07;55.04;98877.75;4469278;32;32994;-65
2022/08/22 11:44:22;;;;;;;;;;;;;;;26.61;57.87;98883.06;4466424;32;33129;-65
2022/08/22 11:46:52;;;;;;;;;;;;;;;26.92;55.76;98878.25;4479033;32;33924;-65
2022/08/22 11:49:26;;;;;;;;;;;;;;;27.20;55.14;98876.66;4470349;32;35581;-65
2022/08/22 11:51:54;;;;;;;;;;;;;;;27.28;55.43;98868.03;4468446;32;32917;-64
2022/08/22 11:54:25;;;;;;;;;;;;;;;27.09;56.13;98870.06;4482369;32;34135;-64
2022/08/22 11:57:07;;;;;;;;;;;;;;;27.31;56.06;98868.34;4466561;32;32731;-65
2022/08/22 11:59:41;;;;;;;;;;;;;;;27.17;54.88;98873.31;4473194;32;34397;-65
2022/08/22 12:02:12;;;;;;;;;;;;;;;27.08;55.36;98877.47;4479832;31;33316;-65
2022/08/22 12:04:41;;;;;;;;;;;;;;;27.50;54.34;98874.50;4479757;32;34824;-64
2022/08/22 12:07:17;;;;;;;;;;;;;;;27.69;52.94;98855.88;4473667;32;33898;-65
2022/08/22 12:09:49;;;;;;;;;;;;;;;27.04;54.62;98861.75;4474930;32;35148;-65
2022/08/22 12:12:17;;;;;;;;;;;;;;;27.67;52.95;98868.19;4455158;32;33727;-65
2022/08/22 12:15:03;;;;;;;;;;;;;;;27.81;51.91;98866.84;4471243;32;33795;-64
2022/08/22 12:17:38;;;;;;;;;;;;;;;27.68;51.52;98861.62;4468624;32;34258;-64
2022/08/22 12:20:31;;;;;;;;;;;;;;;27.62;52.43;98864.28;4474744;32;34508;-65
2022/08/22 12:23:17;;;;;;;;;;;;;;;26.95;54.42;98864.03;4475966;31;34362;-64
2022/08/22 12:26:04;;;;;;;;;;;;;;;27.27;54.07;98858.13;4475198;32;33338;-65
2022/08/22 12:28:55;;;;;;;;;;;;;;;27.32;53.76;98860.94;4465829;32;34080;-65
2022/08/22 12:31:23;;;;;;;;;;;;;;;27.35;54.20;98863.22;4476850;32;34220;-65
2022/08/22 12:34:16;;;;;;;;;;;;;;;27.08;53.63;98861.00;4477213;31;34278;-65
2022/08/22 12:36:56;;;;;;;;;;;;;;;27.49;51.83;98867.34;4452053;31;33400;-65
2022/08/22 12:39:39;;;;;;;;;;;;;;;27.56;52.66;98858.94;4470059;32;33715;-64
2022/08/22 12:42:13;;;;;;;;;;;;;;;27.57;52.80;98855.09;4466476;32;35021;-65
2022/08/22 12:44:46;;;;;;;;;;;;;;;27.60;51.76;98854.59;4475526;31;32878;-65
2022/08/22 12:47:16;;;;;;;;;;;;;;;27.73;51.42;98856.22;4475870;32;34591;-65
2022/08/22 12:49:56;;;;;;;;;;;;;;;27.36;53.52;98856.66;4469389;31;35195;-64
2022/08/22 12:52:42;;;;;;;;;;;;;;;27.59;52.75;98858.44;4471489;32;32630;-65
2022/08/22 12:55:16;;;;;;;;;;;;;;;26.80;54.94;98861.78;4475823;31;32850;-65
2022/08/22 12:57:49;;;;;;;;;;;;;;;26.43;56.43;98866.69;4480534;32;33075;-65